CEB240 RPVI-RPME
Flight info
| Callsign | CEB240 |
|---|---|
| Flight time | 0h 45m |
| Altitude | 25000 |
| Route | KADSO2A KADSO DCT KAWIT |
| Aircraft | A20N/M-SDE2E3FGHIRWXY/LB1 |
Departure
| Time | 2026-04-24 14:21 |
|---|---|
| Airport | Iloilo International Airport (RPVI) |
Arrival
| Time | 2026-04-24 15:06 |
|---|---|
| Airport | Bancasi Airport (RPME) |
| Time | Latitude | Longitude | Altitude | Speed | Heading |
|---|---|---|---|---|---|
| 2026-04-24 14:02 | 10.83164 | 122.49662 | 175 ft | 0 kts | 110° |
| 2026-04-24 14:10 | 10.83167 | 122.49651 | 175 ft | 2 kts | 105° |
| 2026-04-24 14:10 | 10.83172 | 122.49636 | 175 ft | 2 kts | 110° |
| 2026-04-24 14:10 | 10.83177 | 122.49622 | 175 ft | 2 kts | 109° |
| 2026-04-24 14:10 | 10.83182 | 122.49607 | 175 ft | 2 kts | 109° |
| 2026-04-24 14:11 | 10.83186 | 122.49593 | 175 ft | 1 kts | 119° |
| 2026-04-24 14:11 | 10.83196 | 122.49587 | 175 ft | 1 kts | 183° |
| 2026-04-24 14:11 | 10.83207 | 122.49591 | 175 ft | 0 kts | 201° |
| 2026-04-24 14:14 | 10.83204 | 122.49590 | 175 ft | 0 kts | 201° |
| 2026-04-24 14:14 | 10.83179 | 122.49580 | 175 ft | 3 kts | 199° |
| 2026-04-24 14:15 | 10.83154 | 122.49572 | 175 ft | 4 kts | 199° |
| 2026-04-24 14:15 | 10.83122 | 122.49560 | 175 ft | 5 kts | 199° |
| 2026-04-24 14:15 | 10.83081 | 122.49546 | 175 ft | 6 kts | 200° |
| 2026-04-24 14:15 | 10.83038 | 122.49522 | 175 ft | 7 kts | 230° |
| 2026-04-24 14:16 | 10.83032 | 122.49468 | 175 ft | 8 kts | 289° |
| 2026-04-24 14:16 | 10.83055 | 122.49406 | 175 ft | 9 kts | 290° |
| 2026-04-24 14:16 | 10.83079 | 122.49339 | 176 ft | 10 kts | 290° |
| 2026-04-24 14:17 | 10.83011 | 122.49229 | 176 ft | 11 kts | 199° |
| 2026-04-24 14:17 | 10.82931 | 122.49199 | 176 ft | 12 kts | 199° |
| 2026-04-24 14:17 | 10.82756 | 122.49134 | 176 ft | 13 kts | 200° |
| 2026-04-24 14:18 | 10.82663 | 122.49100 | 176 ft | 14 kts | 200° |
| 2026-04-24 14:18 | 10.82569 | 122.49065 | 176 ft | 14 kts | 201° |
| 2026-04-24 14:18 | 10.82472 | 122.49029 | 176 ft | 14 kts | 200° |
| 2026-04-24 14:18 | 10.82377 | 122.48994 | 176 ft | 13 kts | 200° |
| 2026-04-24 14:19 | 10.82298 | 122.48985 | 176 ft | 8 kts | 173° |
| 2026-04-24 14:19 | 10.82282 | 122.48985 | 176 ft | 0 kts | 205° |
| 2026-04-24 14:19 | 10.82278 | 122.48980 | 176 ft | 1 kts | 234° |
| 2026-04-24 14:19 | 10.82278 | 122.48969 | 176 ft | 1 kts | 298° |
| 2026-04-24 14:20 | 10.82293 | 122.48965 | 176 ft | 3 kts | 6° |
| 2026-04-24 14:20 | 10.82319 | 122.48972 | 176 ft | 4 kts | 19° |
| 2026-04-24 14:20 | 10.82386 | 122.48996 | 176 ft | 33 kts | 20° |
| 2026-04-24 14:20 | 10.82872 | 122.49177 | 176 ft | 110 kts | 20° |
| 2026-04-24 14:21 | 10.83793 | 122.49515 | 219 ft | 163 kts | 17° |
| 2026-04-24 14:21 | 10.84829 | 122.49877 | 925 ft | 154 kts | 18° |
| 2026-04-24 14:21 | 10.85878 | 122.50234 | 1429 ft | 168 kts | 18° |
| 2026-04-24 14:21 | 10.87050 | 122.50620 | 1966 ft | 179 kts | 19° |
| 2026-04-24 14:22 | 10.88117 | 122.51305 | 2443 ft | 191 kts | 55° |
| 2026-04-24 14:22 | 10.88409 | 122.52643 | 2849 ft | 208 kts | 100° |
| 2026-04-24 14:22 | 10.86907 | 122.55476 | 3686 ft | 249 kts | 121° |
| 2026-04-24 14:23 | 10.85958 | 122.57009 | 4234 ft | 264 kts | 116° |
| 2026-04-24 14:23 | 10.85533 | 122.58811 | 5005 ft | 267 kts | 86° |
| 2026-04-24 14:23 | 10.85892 | 122.60629 | 6078 ft | 259 kts | 76° |
| 2026-04-24 14:23 | 10.86301 | 122.62372 | 7230 ft | 248 kts | 77° |
| 2026-04-24 14:24 | 10.86672 | 122.64013 | 8300 ft | 239 kts | 77° |
| 2026-04-24 14:24 | 10.87037 | 122.65648 | 9135 ft | 240 kts | 78° |
| 2026-04-24 14:24 | 10.87409 | 122.67325 | 9916 ft | 243 kts | 77° |
| 2026-04-24 14:24 | 10.87782 | 122.69006 | 10680 ft | 246 kts | 77° |
| 2026-04-24 14:25 | 10.88162 | 122.70712 | 11428 ft | 249 kts | 77° |
| 2026-04-24 14:25 | 10.88547 | 122.72435 | 12160 ft | 253 kts | 77° |
| 2026-04-24 14:25 | 10.88937 | 122.74181 | 12864 ft | 257 kts | 77° |
| 2026-04-24 14:25 | 10.89333 | 122.75951 | 13567 ft | 260 kts | 77° |
| 2026-04-24 14:26 | 10.89740 | 122.77774 | 14248 ft | 266 kts | 77° |
| 2026-04-24 14:26 | 10.90160 | 122.79663 | 14643 ft | 282 kts | 77° |
| 2026-04-24 14:26 | 10.90607 | 122.81667 | 14997 ft | 299 kts | 77° |
| 2026-04-24 14:26 | 10.91078 | 122.83781 | 15323 ft | 317 kts | 77° |
| 2026-04-24 14:27 | 10.91578 | 122.86025 | 15635 ft | 334 kts | 77° |
| 2026-04-24 14:27 | 10.92108 | 122.88404 | 15931 ft | 350 kts | 77° |
| 2026-04-24 14:27 | 10.92658 | 122.90871 | 16213 ft | 366 kts | 77° |
| 2026-04-24 14:27 | 10.93238 | 122.93461 | 16488 ft | 381 kts | 77° |
| 2026-04-24 14:28 | 10.93844 | 122.96162 | 16829 ft | 393 kts | 77° |
| 2026-04-24 14:28 | 10.94459 | 122.98902 | 17410 ft | 397 kts | 77° |
| 2026-04-24 14:28 | 10.95075 | 123.01656 | 18036 ft | 400 kts | 77° |
| 2026-04-24 14:28 | 10.95690 | 123.04404 | 18674 ft | 401 kts | 77° |
| 2026-04-24 14:29 | 10.96314 | 123.07194 | 19310 ft | 403 kts | 77° |
| 2026-04-24 14:29 | 10.96945 | 123.10025 | 19932 ft | 405 kts | 77° |
| 2026-04-24 14:29 | 10.97562 | 123.12804 | 20513 ft | 407 kts | 77° |
| 2026-04-24 14:29 | 10.98186 | 123.15642 | 21085 ft | 409 kts | 77° |
| 2026-04-24 14:30 | 10.98600 | 123.17525 | 21424 ft | 411 kts | 77° |
| 2026-04-24 14:30 | 10.99444 | 123.21362 | 22170 ft | 414 kts | 77° |
| 2026-04-24 14:30 | 11.00077 | 123.24239 | 22728 ft | 416 kts | 77° |
| 2026-04-24 14:30 | 11.00705 | 123.27128 | 23277 ft | 418 kts | 78° |
| 2026-04-24 14:31 | 11.01087 | 123.30067 | 23753 ft | 421 kts | 85° |
| 2026-04-24 14:31 | 11.01042 | 123.33081 | 24157 ft | 427 kts | 97° |
| 2026-04-24 14:31 | 11.00187 | 123.35953 | 24530 ft | 435 kts | 113° |
| 2026-04-24 14:31 | 10.98503 | 123.38553 | 24835 ft | 442 kts | 128° |
| 2026-04-24 14:32 | 10.96408 | 123.40858 | 24878 ft | 442 kts | 130° |
| 2026-04-24 14:32 | 10.94303 | 123.43141 | 24887 ft | 442 kts | 130° |
| 2026-04-24 14:32 | 10.92181 | 123.45449 | 24891 ft | 442 kts | 130° |
| 2026-04-24 14:32 | 10.90073 | 123.47754 | 24892 ft | 442 kts | 130° |
| 2026-04-24 14:33 | 10.87986 | 123.50045 | 24892 ft | 442 kts | 130° |
| 2026-04-24 14:33 | 10.87285 | 123.50816 | 24890 ft | 442 kts | 130° |
| 2026-04-24 14:34 | 10.79395 | 123.59512 | 24889 ft | 442 kts | 130° |
| 2026-04-24 14:34 | 10.77296 | 123.61826 | 24890 ft | 442 kts | 130° |
| 2026-04-24 14:34 | 10.75212 | 123.64125 | 24890 ft | 442 kts | 130° |
| 2026-04-24 14:34 | 10.73118 | 123.66439 | 24891 ft | 442 kts | 130° |
| 2026-04-24 14:35 | 10.71023 | 123.68767 | 24890 ft | 442 kts | 130° |
| 2026-04-24 14:35 | 10.68910 | 123.71111 | 24892 ft | 442 kts | 130° |
| 2026-04-24 14:35 | 10.66827 | 123.73416 | 24894 ft | 441 kts | 130° |
| 2026-04-24 14:35 | 10.64740 | 123.75726 | 24895 ft | 442 kts | 130° |
| 2026-04-24 14:36 | 10.62646 | 123.78042 | 24897 ft | 442 kts | 130° |
| 2026-04-24 14:36 | 10.60557 | 123.80346 | 24899 ft | 442 kts | 130° |
| 2026-04-24 14:36 | 10.58446 | 123.82673 | 24900 ft | 442 kts | 130° |
| 2026-04-24 14:36 | 10.56367 | 123.84965 | 24901 ft | 442 kts | 130° |
| 2026-04-24 14:37 | 10.54253 | 123.87294 | 24902 ft | 442 kts | 130° |
| 2026-04-24 14:37 | 10.52168 | 123.89590 | 24903 ft | 442 kts | 130° |
| 2026-04-24 14:37 | 10.50081 | 123.91886 | 24904 ft | 442 kts | 130° |
| 2026-04-24 14:37 | 10.47959 | 123.94221 | 24902 ft | 442 kts | 130° |
| 2026-04-24 14:38 | 10.45874 | 123.96516 | 24902 ft | 442 kts | 130° |
| 2026-04-24 14:38 | 10.43784 | 123.98814 | 24900 ft | 442 kts | 130° |
| 2026-04-24 14:38 | 10.41690 | 124.01117 | 24898 ft | 442 kts | 130° |
| 2026-04-24 14:38 | 10.39595 | 124.03419 | 24895 ft | 442 kts | 130° |
| 2026-04-24 14:39 | 10.37496 | 124.05726 | 24894 ft | 442 kts | 130° |
| 2026-04-24 14:39 | 10.35398 | 124.08031 | 24892 ft | 442 kts | 130° |
| 2026-04-24 14:39 | 10.33292 | 124.10345 | 24891 ft | 442 kts | 130° |
| 2026-04-24 14:39 | 10.31202 | 124.12640 | 24890 ft | 442 kts | 130° |
| 2026-04-24 14:40 | 10.29103 | 124.14945 | 24889 ft | 442 kts | 130° |
| 2026-04-24 14:40 | 10.27011 | 124.17242 | 24888 ft | 442 kts | 130° |
| 2026-04-24 14:40 | 10.24926 | 124.19531 | 24887 ft | 442 kts | 130° |
| 2026-04-24 14:40 | 10.22821 | 124.21842 | 24887 ft | 442 kts | 130° |
| 2026-04-24 14:41 | 10.20710 | 124.24159 | 24888 ft | 442 kts | 130° |
| 2026-04-24 14:41 | 10.18621 | 124.26448 | 24890 ft | 442 kts | 130° |
| 2026-04-24 14:41 | 10.16538 | 124.28733 | 24891 ft | 442 kts | 130° |
| 2026-04-24 14:41 | 10.14434 | 124.31037 | 24892 ft | 442 kts | 130° |
| 2026-04-24 14:42 | 10.13030 | 124.32577 | 24893 ft | 442 kts | 130° |
| 2026-04-24 14:42 | 10.10234 | 124.35641 | 24893 ft | 442 kts | 130° |
| 2026-04-24 14:42 | 10.08138 | 124.37940 | 24894 ft | 442 kts | 130° |
| 2026-04-24 14:42 | 10.06038 | 124.40241 | 24895 ft | 442 kts | 130° |
| 2026-04-24 14:43 | 10.03940 | 124.42542 | 24895 ft | 442 kts | 130° |
| 2026-04-24 14:43 | 10.01845 | 124.44835 | 24895 ft | 442 kts | 130° |
| 2026-04-24 14:43 | 9.99728 | 124.47154 | 24895 ft | 442 kts | 130° |
| 2026-04-24 14:43 | 9.97635 | 124.49445 | 24895 ft | 442 kts | 130° |
| 2026-04-24 14:44 | 9.95543 | 124.51733 | 24893 ft | 442 kts | 130° |
| 2026-04-24 14:44 | 9.93440 | 124.54034 | 24893 ft | 442 kts | 130° |
| 2026-04-24 14:44 | 9.91326 | 124.56347 | 24892 ft | 442 kts | 130° |
| 2026-04-24 14:44 | 9.89193 | 124.58680 | 24891 ft | 442 kts | 130° |
| 2026-04-24 14:45 | 9.87255 | 124.60784 | 24890 ft | 442 kts | 130° |
| 2026-04-24 14:45 | 9.84931 | 124.63308 | 24889 ft | 442 kts | 130° |
| 2026-04-24 14:45 | 9.82818 | 124.65605 | 24890 ft | 442 kts | 130° |
| 2026-04-24 14:45 | 9.80702 | 124.67924 | 24889 ft | 442 kts | 130° |
| 2026-04-24 14:46 | 9.78613 | 124.70219 | 24888 ft | 442 kts | 130° |
| 2026-04-24 14:46 | 9.76504 | 124.72531 | 24889 ft | 442 kts | 130° |
| 2026-04-24 14:46 | 9.74436 | 124.74796 | 24795 ft | 443 kts | 130° |
| 2026-04-24 14:46 | 9.72333 | 124.77095 | 24325 ft | 437 kts | 130° |
| 2026-04-24 14:47 | 9.70957 | 124.78597 | 24028 ft | 435 kts | 130° |
| 2026-04-24 14:47 | 9.68205 | 124.81602 | 23365 ft | 430 kts | 130° |
| 2026-04-24 14:47 | 9.66188 | 124.83805 | 22840 ft | 426 kts | 130° |
| 2026-04-24 14:47 | 9.64167 | 124.86013 | 22293 ft | 423 kts | 130° |
| 2026-04-24 14:48 | 9.62170 | 124.88194 | 21740 ft | 419 kts | 130° |
| 2026-04-24 14:48 | 9.60216 | 124.90330 | 21191 ft | 415 kts | 130° |
| 2026-04-24 14:48 | 9.58253 | 124.92474 | 20636 ft | 411 kts | 130° |
| 2026-04-24 14:48 | 9.56303 | 124.94604 | 20082 ft | 406 kts | 130° |
| 2026-04-24 14:49 | 9.54407 | 124.96674 | 19540 ft | 403 kts | 130° |
| 2026-04-24 14:49 | 9.52479 | 124.98777 | 18986 ft | 400 kts | 130° |
| 2026-04-24 14:49 | 9.50598 | 125.00830 | 18445 ft | 397 kts | 131° |
| 2026-04-24 14:49 | 9.48719 | 125.02879 | 17903 ft | 394 kts | 131° |
| 2026-04-24 14:50 | 9.46845 | 125.04922 | 17362 ft | 392 kts | 131° |
| 2026-04-24 14:50 | 9.44992 | 125.06943 | 16823 ft | 389 kts | 131° |
| 2026-04-24 14:50 | 9.43140 | 125.08960 | 16287 ft | 387 kts | 131° |
| 2026-04-24 14:50 | 9.41319 | 125.10943 | 15760 ft | 385 kts | 131° |
| 2026-04-24 14:51 | 9.39491 | 125.12936 | 15230 ft | 382 kts | 131° |
| 2026-04-24 14:51 | 9.37674 | 125.14914 | 14701 ft | 380 kts | 131° |
| 2026-04-24 14:51 | 9.35871 | 125.16877 | 14175 ft | 378 kts | 132° |
| 2026-04-24 14:51 | 9.34063 | 125.18848 | 13642 ft | 376 kts | 132° |
| 2026-04-24 14:52 | 9.32294 | 125.20774 | 13122 ft | 374 kts | 132° |
| 2026-04-24 14:52 | 9.30505 | 125.22723 | 12593 ft | 372 kts | 132° |
| 2026-04-24 14:52 | 9.28726 | 125.24663 | 12066 ft | 370 kts | 132° |
| 2026-04-24 14:52 | 9.26990 | 125.26554 | 11740 ft | 361 kts | 131° |
| 2026-04-24 14:53 | 9.25293 | 125.28402 | 11586 ft | 345 kts | 131° |
| 2026-04-24 14:53 | 9.23689 | 125.30152 | 11447 ft | 331 kts | 131° |
| 2026-04-24 14:53 | 9.22144 | 125.31836 | 11328 ft | 318 kts | 131° |
| 2026-04-24 14:53 | 9.20667 | 125.33444 | 11227 ft | 304 kts | 131° |
| 2026-04-24 14:54 | 9.19245 | 125.34993 | 11146 ft | 291 kts | 131° |
| 2026-04-24 14:54 | 9.17918 | 125.36478 | 10936 ft | 285 kts | 129° |
| 2026-04-24 14:54 | 9.16689 | 125.38071 | 10610 ft | 282 kts | 124° |
| 2026-04-24 14:54 | 9.15543 | 125.39676 | 10299 ft | 280 kts | 124° |
| 2026-04-24 14:55 | 9.14792 | 125.40738 | 10094 ft | 279 kts | 124° |
| 2026-04-24 14:55 | 9.13292 | 125.42860 | 9685 ft | 275 kts | 124° |
| 2026-04-24 14:55 | 9.12177 | 125.44436 | 9381 ft | 273 kts | 124° |
| 2026-04-24 14:55 | 9.11064 | 125.46006 | 9076 ft | 271 kts | 124° |
| 2026-04-24 14:56 | 9.09971 | 125.47547 | 8775 ft | 269 kts | 124° |
| 2026-04-24 14:56 | 9.08868 | 125.49101 | 8471 ft | 267 kts | 124° |
| 2026-04-24 14:56 | 9.07784 | 125.50626 | 8175 ft | 265 kts | 124° |
| 2026-04-24 14:56 | 9.06716 | 125.52128 | 7883 ft | 263 kts | 124° |
| 2026-04-24 14:57 | 9.05643 | 125.53640 | 7590 ft | 262 kts | 124° |
| 2026-04-24 14:57 | 9.04579 | 125.55138 | 7298 ft | 260 kts | 124° |
| 2026-04-24 14:57 | 9.03520 | 125.56626 | 7004 ft | 258 kts | 124° |
| 2026-04-24 14:57 | 9.02468 | 125.58102 | 6705 ft | 256 kts | 124° |
| 2026-04-24 14:58 | 9.01428 | 125.59562 | 6410 ft | 255 kts | 124° |
| 2026-04-24 14:58 | 9.00397 | 125.61011 | 6119 ft | 253 kts | 124° |
| 2026-04-24 14:58 | 8.99369 | 125.62456 | 5827 ft | 252 kts | 124° |
| 2026-04-24 14:58 | 8.98331 | 125.63912 | 5538 ft | 251 kts | 124° |
| 2026-04-24 14:59 | 8.97310 | 125.65345 | 5251 ft | 250 kts | 124° |
| 2026-04-24 14:59 | 8.96300 | 125.66774 | 4968 ft | 249 kts | 124° |
| 2026-04-24 14:59 | 8.95291 | 125.68202 | 4697 ft | 247 kts | 124° |
| 2026-04-24 14:59 | 8.94308 | 125.69588 | 4648 ft | 233 kts | 124° |
| 2026-04-24 15:00 | 8.93197 | 125.70744 | 4566 ft | 229 kts | 150° |
| 2026-04-24 15:00 | 8.91678 | 125.71114 | 4445 ft | 225 kts | 182° |
| 2026-04-24 15:00 | 8.90186 | 125.70658 | 4186 ft | 225 kts | 206° |
| 2026-04-24 15:00 | 8.88792 | 125.69922 | 3940 ft | 222 kts | 207° |
| 2026-04-24 15:01 | 8.87402 | 125.69192 | 3695 ft | 219 kts | 210° |
| 2026-04-24 15:01 | 8.86311 | 125.68154 | 3464 ft | 213 kts | 243° |
| 2026-04-24 15:01 | 8.86006 | 125.66734 | 3276 ft | 200 kts | 276° |
| 2026-04-24 15:01 | 8.86412 | 125.65438 | 3167 ft | 184 kts | 298° |
| 2026-04-24 15:02 | 8.86994 | 125.64317 | 3056 ft | 171 kts | 300° |
| 2026-04-24 15:02 | 8.87540 | 125.63287 | 2959 ft | 159 kts | 300° |
| 2026-04-24 15:02 | 8.88057 | 125.62294 | 2892 ft | 158 kts | 299° |
| 2026-04-24 15:02 | 8.88563 | 125.61298 | 2808 ft | 158 kts | 299° |
| 2026-04-24 15:03 | 8.88897 | 125.60635 | 2703 ft | 159 kts | 299° |
| 2026-04-24 15:03 | 8.89559 | 125.59309 | 2427 ft | 157 kts | 298° |
| 2026-04-24 15:03 | 8.90044 | 125.58321 | 2246 ft | 150 kts | 298° |
| 2026-04-24 15:03 | 8.90488 | 125.57410 | 2031 ft | 142 kts | 299° |
| 2026-04-24 15:04 | 8.90933 | 125.56501 | 1991 ft | 142 kts | 298° |
| 2026-04-24 15:04 | 8.91373 | 125.55602 | 1987 ft | 141 kts | 298° |
| 2026-04-24 15:04 | 8.91815 | 125.54709 | 1715 ft | 144 kts | 299° |
| 2026-04-24 15:04 | 8.92274 | 125.53816 | 1340 ft | 143 kts | 298° |
| 2026-04-24 15:05 | 8.92699 | 125.52924 | 1022 ft | 141 kts | 297° |
| 2026-04-24 15:05 | 8.93126 | 125.52046 | 711 ft | 137 kts | 297° |
| 2026-04-24 15:05 | 8.93557 | 125.51189 | 494 ft | 136 kts | 296° |
| 2026-04-24 15:05 | 8.93962 | 125.50320 | 382 ft | 136 kts | 295° |
| 2026-04-24 15:06 | 8.94386 | 125.49455 | 226 ft | 136 kts | 296° |
| 2026-04-24 15:06 | 8.94797 | 125.48608 | 68 ft | 132 kts | 296° |
| 2026-04-24 15:06 | 8.95127 | 125.47931 | 48 ft | 66 kts | 295° |
| 2026-04-24 15:06 | 8.95242 | 125.47696 | 45 ft | 23 kts | 296° |
| 2026-04-24 15:07 | 8.95284 | 125.47607 | 44 ft | 12 kts | 290° |
| 2026-04-24 15:07 | 8.95299 | 125.47552 | 43 ft | 4 kts | 289° |
| 2026-04-24 15:07 | 8.95308 | 125.47558 | 43 ft | 3 kts | 78° |
| 2026-04-24 15:07 | 8.95299 | 125.47584 | 44 ft | 4 kts | 118° |
| 2026-04-24 15:08 | 8.95283 | 125.47613 | 44 ft | 5 kts | 117° |
| 2026-04-24 15:08 | 8.95266 | 125.47647 | 44 ft | 5 kts | 116° |
| 2026-04-24 15:08 | 8.95248 | 125.47685 | 45 ft | 6 kts | 116° |
| 2026-04-24 15:08 | 8.95228 | 125.47726 | 45 ft | 6 kts | 116° |
| 2026-04-24 15:09 | 8.95206 | 125.47771 | 46 ft | 7 kts | 117° |
| 2026-04-24 15:09 | 8.95182 | 125.47819 | 47 ft | 7 kts | 116° |
| 2026-04-24 15:09 | 8.95157 | 125.47871 | 47 ft | 8 kts | 116° |
| 2026-04-24 15:09 | 8.95130 | 125.47925 | 48 ft | 8 kts | 116° |
| 2026-04-24 15:10 | 8.95102 | 125.47981 | 49 ft | 9 kts | 116° |
| 2026-04-24 15:10 | 8.95073 | 125.48041 | 49 ft | 9 kts | 116° |
| 2026-04-24 15:10 | 8.95034 | 125.48088 | 50 ft | 7 kts | 158° |
| 2026-04-24 15:10 | 8.94990 | 125.48102 | 50 ft | 4 kts | 163° |
| 2026-04-24 15:11 | 8.94960 | 125.48113 | 51 ft | 4 kts | 152° |
| 2026-04-24 15:11 | 8.94940 | 125.48138 | 51 ft | 3 kts | 122° |
| 2026-04-24 15:11 | 8.94928 | 125.48152 | 51 ft | 1 kts | 154° |
| 2026-04-24 15:11 | 8.94919 | 125.48148 | 51 ft | 1 kts | 222° |
| 2026-04-24 15:12 | 8.94907 | 125.48133 | 51 ft | 3 kts | 234° |
| 2026-04-24 15:12 | 8.94892 | 125.48111 | 51 ft | 0 kts | 237° |